WetterOnline ( https://www.wetteronline.de )

Wetter aktuell Wismar

Aktuelles Wetter: Schwerin (68m)

6-stündlich | Neueste Meldungen
Ortszeit Temperatur Wetter
Di, 16.08. 2:00 18.6° C wolkig
Mo, 15.08. 20:00 24.8° C bewölkt
Mo, 15.08. 14:00 28.0° C fast wolkenlos
Mo, 15.08. 8:00 20.9° C leicht bewölkt
Mo, 15.08. 2:00 19.5° C fast wolkenlos
So, 14.08. 20:00 27.1° C wolkenlos
So, 14.08. 14:00 30.8° C leicht bewölkt
So, 14.08. 8:00 19.9° C wolkig
Ortszeit Temperatur Wetter
Di, 16.08. 3:30 18.9° C bewölkt
Di, 16.08. 3:20 18.9° C bewölkt
Di, 16.08. 3:10 18.6° C bedeckt
Di, 16.08. 3:00 18.6° C bewölkt
Di, 16.08. 2:50 18.6° C bewölkt
Di, 16.08. 2:40 18.5° C bedeckt
Di, 16.08. 2:30 18.4° C wolkig
Di, 16.08. 2:00 18.6° C wolkig
Di, 16.08. 1:30 18.8° C wolkig
Di, 16.08. 1:00 18.9° C wolkig
Di, 16.08. 0:30 19.2° C bedeckt
Ortszeit Relative Feuchte Sichtweite
Di, 16.08. 2:00 96% 14 km
Mo, 15.08. 20:00 66% 50 km
Mo, 15.08. 14:00 49% 55 km
Mo, 15.08. 8:00 78% 35 km
Mo, 15.08. 2:00 83% 55 km
So, 14.08. 20:00 48% 30 km
So, 14.08. 14:00 37% >70 km
So, 14.08. 8:00 79% 50 km
Ortszeit Relative Feuchte Sichtweite
Di, 16.08. 3:30 93% 25 km
Di, 16.08. 3:20 93% -
Di, 16.08. 3:10 95% -
Di, 16.08. 3:00 94% 19 km
Di, 16.08. 2:50 94% -
Di, 16.08. 2:40 95% -
Di, 16.08. 2:30 95% 20 km
Di, 16.08. 2:00 96% 14 km
Di, 16.08. 1:30 96% 11 km
Di, 16.08. 1:00 96% 9 km
Di, 16.08. 0:30 94% 23 km
Ortszeit Niederschlagsmenge Niederschlagsart
Di, 16.08. 2:00 14 l/m2 in 6 Std. Regen
Mo, 15.08. 20:00 0.1 l/m2 in 12 Std. Regen
Mo, 15.08. 14:00 0.0 l/m2 in 6 Std. -
Mo, 15.08. 8:00 0.0 l/m2 in 12 Std. -
Mo, 15.08. 2:00 0.0 l/m2 in 6 Std. -
So, 14.08. 20:00 0.0 l/m2 in 12 Std. -
So, 14.08. 14:00 0.0 l/m2 in 6 Std. -
So, 14.08. 8:00 0.0 l/m2 in 12 Std. -
Ortszeit Niederschlagsmenge Niederschlagsart
Di, 16.08. 3:30 0.0 l/m2 in 1 Std. -
Di, 16.08. 3:20 keine Meldung -
Di, 16.08. 3:10 keine Meldung -
Di, 16.08. 3:00 0.0 l/m2 in 1 Std. -
Di, 16.08. 2:50 keine Meldung -
Di, 16.08. 2:40 keine Meldung -
Di, 16.08. 2:30 0.0 l/m2 in 1 Std. -
Di, 16.08. 2:00 0.0 l/m2 in 1 Std. Regen
Di, 16.08. 1:30 0.0 l/m2 in 1 Std. -
Di, 16.08. 1:00 0.1 l/m2 in 1 Std. Regen
Di, 16.08. 0:30 0.1 l/m2 in 1 Std. Schneeregen
Ortszeit Stärke Spitze Richtung
km/h Bft. km/h Grad Sektor
Di, 16.08. 2:00 11 2 43 210° SW
Mo, 15.08. 20:00 7 2 29 20° N
Mo, 15.08. 14:00 11 2 29 120° SO
Mo, 15.08. 8:00 7 2 14 120° SO
Mo, 15.08. 2:00 7 2 29 80° O
So, 14.08. 20:00 14 3 36 70° O
So, 14.08. 14:00 11 2 25 120° SO
So, 14.08. 8:00 7 2 18 90° O
Ortszeit Stärke Spitze Richtung
km/h Bft. km/h Grad Sektor
Di, 16.08. 3:30 18 3 25 230° SW
Di, 16.08. 3:20 18 3 - 230° SW
Di, 16.08. 3:10 17 3 - 220° SW
Di, 16.08. 3:00 14 3 25 220° SW
Di, 16.08. 2:50 14 3 - 220° SW
Di, 16.08. 2:40 14 3 - 220° SW
Di, 16.08. 2:30 14 3 22 210° SW
Di, 16.08. 2:00 11 2 22 210° SW
Di, 16.08. 1:30 11 2 22 200° S
Di, 16.08. 1:00 11 2 18 200° S
Di, 16.08. 0:30 9 2 19 170° S
Ortszeit Untergrenze Bedeckung Gattung
total tief tief mittel hoch
Di, 16.08. 2:00 1350 m 7/8 2/8 - - -
Mo, 15.08. 20:00 1800 m 8/8 4/8 - - -
Mo, 15.08. 14:00 1500 m 1/8 1/8 - - -
Mo, 15.08. 8:00 4800 m 3/8 3/8 - - -
Mo, 15.08. 2:00 10500 m 2/8 0/8 - - -
So, 14.08. 20:00 - 0/8 0/8 - - -
So, 14.08. 14:00 4500 m 5/8 3/8 - - -
So, 14.08. 8:00 3300 m 7/8 4/8 - - -
Ortszeit Bedeckungsgrad in Achtel und Wolkenuntergrenze
Di, 16.08. 3:30 6(1800m) 8(3900m) 8(5100m)
Di, 16.08. 3:20 6(1800m) 8(3900m) 8(5100m)
Di, 16.08. 3:10 8
Di, 16.08. 3:00 6(1440m) 7(1500m) 8(3900m)
Di, 16.08. 2:50 6(1440m) 7(1500m) 8(3900m)
Di, 16.08. 2:40 8
Di, 16.08. 2:30 6(1440m) 6(3900m)
Di, 16.08. 2:00 2(1350m) 7(3900m) 7(9000m)
Di, 16.08. 1:30 3(90m) 7(3900m) 7(9000m)
Di, 16.08. 1:00 1(3300m) 5(4500m) 6(6600m)
Di, 16.08. 0:30 6(3600m) 8(4200m) 8(6000m)
Ortszeit Luftdruck NN (hPa) Tendenz (hPa in 3 Std.)
Di, 16.08. 2:00 1005 + 1,2
Mo, 15.08. 20:00 1003 + 0,3
Mo, 15.08. 14:00 1004 - 0,9
Mo, 15.08. 8:00 1006 - 0,3
Mo, 15.08. 2:00 1007 - 1,4
So, 14.08. 20:00 1008 - 1,1
So, 14.08. 14:00 1011 - 1,8
So, 14.08. 8:00 1014 - 0,8
Ortszeit Luftdruck NN (hPa) Tendenz (hPa in 3 Std.)
Di, 16.08. 3:30 1006 + 0,2
Di, 16.08. 3:20 1006 keine Meldung
Di, 16.08. 3:10 1006 keine Meldung
Di, 16.08. 3:00 1006 + 0,2
Di, 16.08. 2:50 1006 keine Meldung
Di, 16.08. 2:40 1006 keine Meldung
Di, 16.08. 2:30 1005 + 0,5
Di, 16.08. 2:00 1005 + 1,2
Di, 16.08. 1:30 1005 + 1,0
Di, 16.08. 1:00 1005 + 0,2
Di, 16.08. 0:30 1005 + 0,2
Ortszeit Schneehöhe (cm)
Di, 16.08. 2:00 0
Mo, 15.08. 20:00 0
Mo, 15.08. 14:00 0
Mo, 15.08. 8:00 0
Mo, 15.08. 2:00 0
So, 14.08. 20:00 0
So, 14.08. 14:00 0
So, 14.08. 8:00 0
Ortszeit Schneehöhe (cm)
Di, 16.08. 3:30 0
Di, 16.08. 3:20 0
Di, 16.08. 3:10 0
Di, 16.08. 3:00 0
Di, 16.08. 2:50 0
Di, 16.08. 2:40 0
Di, 16.08. 2:30 0
Di, 16.08. 2:00 0
Di, 16.08. 1:30 0
Di, 16.08. 1:00 0
Di, 16.08. 0:30 0
Link zu dieser Seite / Seite empfehlen

Das Wetter in ...